METAR AND TAF INFORMATION
METAR FOR EHKD
ADDS - METARS form results

(2110 UTC 21 August 2019)
Data provider http://aviationweather.gov/metar/data/
 
METAR text: EHKD 212055Z AUTO 16004KT 120V200 9999 OVC270/// 14/11 Q1026 BLU 16004T CAVOK
Conditions at: EHKD (DE KOOY (NAVY) , NL) observed 2055 UTC 21 August 2019
Temperature: 14.0°C (57°F)
Dewpoint: 11.0°C (52°F) [RH = 82%]
Pressure (altimeter): 30.30 inches Hg (1026.0 mb)
Winds: from the SSE (160 degrees) at 5 MPH (4 knots; 2.1 m/s)
Visibility: 6 or more miles (10+ km)
Ceiling: 27000 feet AGL
Clouds: overcast cloud deck at 27000 feet AGL
Weather: no significant weather observed at this time

METAR text: EHKD 212025Z AUTO 18003KT 9999 OVC280 15/12 Q1026 BLU 16004T CAVOK
Conditions at: EHKD (DE KOOY (NAVY) , NL) observed 2025 UTC 21 August 2019
Temperature: 15.0°C (59°F)
Dewpoint: 12.0°C (54°F) [RH = 82%]
Pressure (altimeter): 30.30 inches Hg (1026.0 mb)
Winds: from the S (180 degrees) at 3 MPH (3 knots; 1.5 m/s)
Visibility: 6 or more miles (10+ km)
Ceiling: 28000 feet AGL
Clouds: overcast cloud deck at 28000 feet AGL
Weather: no significant weather observed at this time

Forecast for: COR
Text: TAF COR EHKD 211645Z 2117/2205 23007KT CAVOK
Forecast period: 1700 to 1800 UTC 21 August 2019
Forecast type: FROM: standard forecast or significant change
Winds: from the SW (230 degrees) at 8 MPH (7 knots; 3.6 m/s)
Visibility: 6 or more miles 10+ km)
Ceiling: unknown
Clouds: missing
Weather: NSW  (no significant weather)
Text: BECMG 2118/2121 16005KT
Forecast period: 1800 UTC 21 August 2019 to 0500 UTC 22 August 2019
Forecast type: BECOMING: Conditions expected to become as follows by 2100 UTC 21 August 2019
Winds: from the SSE (160 degrees) at 6 MPH (5 knots; 2.6 m/s)
Visibility: 6 or more miles 10+ km)
Ceiling: unknown
Clouds: missing
Weather: NSW  (no significant weather)

 AIRPORT MAP

 RUNWAY INFORMATION
Runway 04 Runway length 4183 ft Runway width 98 ft
Runway elevation 3 ft Runway displaced threshold 804 ft Runway heading 34
Runway 22 Runway length 4183 ft Runway width 98 ft
Runway elevation 2 ft Runway displaced threshold 804 ft Runway heading 214

 AIRPORT FREQUENCIES
Type APP Name APP Frequency 119.1 MHZ
Type FSS Name FINAL Frequency 123.3 MHZ
Type GND Name GND Frequency 121.725 MHZ
Type TWR Name TWR Frequency 120.125 MHZ

 AIRPORT NEAR NAVIGATION AIDS
Type VOR-DME Name Den Helder Frequency 115550 KHZ